sensor_id;sensor_type;location;lat;lon;timestamp;P1;durP1;ratioP1;P2;durP2;ratioP2
74926;SDS011;63488;48.092;-1.640;2023-07-31T00:02:14;14.80;;;4.88;;
74926;SDS011;63488;48.092;-1.640;2023-07-31T00:04:39;12.98;;;4.20;;
74926;SDS011;63488;48.092;-1.640;2023-07-31T00:07:05;16.55;;;4.68;;
74926;SDS011;63488;48.092;-1.640;2023-07-31T00:09:32;14.88;;;4.95;;
74926;SDS011;63488;48.092;-1.640;2023-07-31T00:11:57;13.93;;;5.15;;
74926;SDS011;63488;48.092;-1.640;2023-07-31T00:14:22;14.45;;;4.95;;
74926;SDS011;63488;48.092;-1.640;2023-07-31T00:16:48;12.43;;;4.35;;
74926;SDS011;63488;48.092;-1.640;2023-07-31T00:19:13;13.68;;;4.95;;
74926;SDS011;63488;48.092;-1.640;2023-07-31T00:21:38;15.68;;;5.47;;
74926;SDS011;63488;48.092;-1.640;2023-07-31T00:24:04;14.10;;;4.40;;
74926;SDS011;63488;48.092;-1.640;2023-07-31T00:26:29;12.23;;;4.50;;
74926;SDS011;63488;48.092;-1.640;2023-07-31T00:28:54;11.30;;;4.15;;
74926;SDS011;63488;48.092;-1.640;2023-07-31T00:31:20;13.52;;;4.25;;
74926;SDS011;63488;48.092;-1.640;2023-07-31T00:33:45;12.50;;;4.53;;
74926;SDS011;63488;48.092;-1.640;2023-07-31T00:36:10;13.98;;;4.57;;
74926;SDS011;63488;48.092;-1.640;2023-07-31T00:38:36;15.68;;;4.47;;
74926;SDS011;63488;48.092;-1.640;2023-07-31T00:41:01;12.20;;;4.35;;
74926;SDS011;63488;48.092;-1.640;2023-07-31T00:43:26;12.38;;;5.03;;
74926;SDS011;63488;48.092;-1.640;2023-07-31T00:45:52;16.77;;;5.20;;
74926;SDS011;63488;48.092;-1.640;2023-07-31T00:48:17;13.18;;;4.80;;
74926;SDS011;63488;48.092;-1.640;2023-07-31T00:50:43;16.25;;;5.53;;
74926;SDS011;63488;48.092;-1.640;2023-07-31T00:53:08;15.55;;;4.78;;
74926;SDS011;63488;48.092;-1.640;2023-07-31T00:55:33;13.80;;;5.03;;
74926;SDS011;63488;48.092;-1.640;2023-07-31T00:57:59;13.80;;;4.63;;
74926;SDS011;63488;48.092;-1.640;2023-07-31T01:00:24;13.25;;;5.05;;
74926;SDS011;63488;48.092;-1.640;2023-07-31T01:02:50;13.93;;;4.93;;
74926;SDS011;63488;48.092;-1.640;2023-07-31T01:05:16;12.13;;;4.93;;
74926;SDS011;63488;48.092;-1.640;2023-07-31T01:07:45;12.05;;;4.60;;
74926;SDS011;63488;48.092;-1.640;2023-07-31T01:10:16;15.63;;;4.88;;
74926;SDS011;63488;48.092;-1.640;2023-07-31T01:12:44;16.88;;;4.95;;
74926;SDS011;63488;48.092;-1.640;2023-07-31T01:15:10;14.00;;;4.95;;
74926;SDS011;63488;48.092;-1.640;2023-07-31T01:17:36;12.98;;;4.50;;
74926;SDS011;63488;48.092;-1.640;2023-07-31T01:20:02;15.90;;;4.85;;
74926;SDS011;63488;48.092;-1.640;2023-07-31T01:25:28;16.10;;;4.75;;
74926;SDS011;63488;48.092;-1.640;2023-07-31T01:28:03;13.80;;;4.55;;
74926;SDS011;63488;48.092;-1.640;2023-07-31T01:30:32;15.35;;;4.80;;
74926;SDS011;63488;48.092;-1.640;2023-07-31T01:33:01;11.68;;;4.57;;
74926;SDS011;63488;48.092;-1.640;2023-07-31T01:35:32;12.55;;;4.80;;
74926;SDS011;63488;48.092;-1.640;2023-07-31T01:37:57;11.93;;;4.60;;
74926;SDS011;63488;48.092;-1.640;2023-07-31T01:40:23;16.80;;;5.20;;
74926;SDS011;63488;48.092;-1.640;2023-07-31T01:42:48;13.15;;;4.53;;
74926;SDS011;63488;48.092;-1.640;2023-07-31T01:45:14;10.73;;;4.30;;
74926;SDS011;63488;48.092;-1.640;2023-07-31T01:47:39;14.27;;;4.70;;
74926;SDS011;63488;48.092;-1.640;2023-07-31T01:50:05;12.65;;;4.93;;
74926;SDS011;63488;48.092;-1.640;2023-07-31T01:52:30;10.48;;;4.72;;
74926;SDS011;63488;48.092;-1.640;2023-07-31T01:54:55;15.52;;;4.80;;
74926;SDS011;63488;48.092;-1.640;2023-07-31T01:57:21;12.75;;;4.50;;
74926;SDS011;63488;48.092;-1.640;2023-07-31T01:59:46;12.07;;;4.13;;
74926;SDS011;63488;48.092;-1.640;2023-07-31T02:02:12;12.27;;;5.10;;
74926;SDS011;63488;48.092;-1.640;2023-07-31T02:04:37;10.85;;;4.40;;
74926;SDS011;63488;48.092;-1.640;2023-07-31T02:07:04;12.68;;;4.60;;
74926;SDS011;63488;48.092;-1.640;2023-07-31T02:09:30;13.35;;;4.45;;
74926;SDS011;63488;48.092;-1.640;2023-07-31T02:11:55;10.95;;;4.20;;
74926;SDS011;63488;48.092;-1.640;2023-07-31T02:14:20;16.13;;;4.30;;
74926;SDS011;63488;48.092;-1.640;2023-07-31T02:16:46;15.32;;;4.68;;
74926;SDS011;63488;48.092;-1.640;2023-07-31T02:19:11;11.18;;;4.35;;
74926;SDS011;63488;48.092;-1.640;2023-07-31T02:21:36;14.60;;;4.63;;
74926;SDS011;63488;48.092;-1.640;2023-07-31T02:24:02;14.55;;;4.78;;
74926;SDS011;63488;48.092;-1.640;2023-07-31T02:26:27;11.38;;;4.20;;
74926;SDS011;63488;48.092;-1.640;2023-07-31T02:28:52;14.13;;;4.50;;
74926;SDS011;63488;48.092;-1.640;2023-07-31T02:31:18;14.07;;;5.10;;
74926;SDS011;63488;48.092;-1.640;2023-07-31T02:33:43;15.23;;;5.07;;
74926;SDS011;63488;48.092;-1.640;2023-07-31T02:36:08;12.05;;;4.53;;
74926;SDS011;63488;48.092;-1.640;2023-07-31T02:38:34;14.18;;;4.78;;
74926;SDS011;63488;48.092;-1.640;2023-07-31T02:40:59;13.05;;;4.97;;
74926;SDS011;63488;48.092;-1.640;2023-07-31T02:43:25;13.90;;;4.93;;
74926;SDS011;63488;48.092;-1.640;2023-07-31T02:45:53;11.95;;;4.82;;
74926;SDS011;63488;48.092;-1.640;2023-07-31T02:48:18;13.95;;;4.40;;
74926;SDS011;63488;48.092;-1.640;2023-07-31T02:50:44;11.30;;;4.88;;
74926;SDS011;63488;48.092;-1.640;2023-07-31T02:53:10;13.05;;;4.72;;
74926;SDS011;63488;48.092;-1.640;2023-07-31T02:55:35;15.80;;;4.63;;
74926;SDS011;63488;48.092;-1.640;2023-07-31T02:58:00;16.80;;;4.70;;
74926;SDS011;63488;48.092;-1.640;2023-07-31T03:00:26;13.40;;;4.57;;
74926;SDS011;63488;48.092;-1.640;2023-07-31T03:02:51;11.95;;;4.40;;
74926;SDS011;63488;48.092;-1.640;2023-07-31T03:05:16;15.20;;;4.32;;
74926;SDS011;63488;48.092;-1.640;2023-07-31T03:07:42;13.45;;;4.50;;
74926;SDS011;63488;48.092;-1.640;2023-07-31T03:10:07;10.30;;;4.40;;
74926;SDS011;63488;48.092;-1.640;2023-07-31T03:12:33;11.80;;;4.18;;
74926;SDS011;63488;48.092;-1.640;2023-07-31T03:14:59;11.90;;;4.20;;
74926;SDS011;63488;48.092;-1.640;2023-07-31T03:17:24;11.30;;;4.18;;
74926;SDS011;63488;48.092;-1.640;2023-07-31T03:19:49;11.25;;;3.88;;
74926;SDS011;63488;48.092;-1.640;2023-07-31T03:22:15;11.00;;;4.50;;
74926;SDS011;63488;48.092;-1.640;2023-07-31T03:24:40;12.07;;;4.30;;
74926;SDS011;63488;48.092;-1.640;2023-07-31T03:27:05;17.70;;;4.57;;
74926;SDS011;63488;48.092;-1.640;2023-07-31T03:29:31;11.98;;;4.30;;
74926;SDS011;63488;48.092;-1.640;2023-07-31T03:31:56;13.35;;;4.25;;
74926;SDS011;63488;48.092;-1.640;2023-07-31T03:34:22;9.73;;;4.47;;
74926;SDS011;63488;48.092;-1.640;2023-07-31T03:36:47;10.15;;;3.88;;
74926;SDS011;63488;48.092;-1.640;2023-07-31T03:39:12;11.20;;;4.55;;
74926;SDS011;63488;48.092;-1.640;2023-07-31T03:41:38;10.77;;;4.55;;
74926;SDS011;63488;48.092;-1.640;2023-07-31T03:44:03;11.48;;;4.28;;
74926;SDS011;63488;48.092;-1.640;2023-07-31T03:46:29;15.00;;;4.10;;
74926;SDS011;63488;48.092;-1.640;2023-07-31T03:48:54;14.18;;;4.90;;
74926;SDS011;63488;48.092;-1.640;2023-07-31T03:51:19;11.13;;;4.38;;
74926;SDS011;63488;48.092;-1.640;2023-07-31T03:53:45;10.20;;;4.18;;
74926;SDS011;63488;48.092;-1.640;2023-07-31T03:56:10;10.25;;;3.63;;
74926;SDS011;63488;48.092;-1.640;2023-07-31T03:58:36;13.35;;;4.38;;
74926;SDS011;63488;48.092;-1.640;2023-07-31T04:01:02;11.23;;;4.38;;
74926;SDS011;63488;48.092;-1.640;2023-07-31T04:03:27;11.90;;;3.80;;
74926;SDS011;63488;48.092;-1.640;2023-07-31T04:05:54;10.95;;;4.05;;
74926;SDS011;63488;48.092;-1.640;2023-07-31T04:08:19;14.57;;;4.38;;
74926;SDS011;63488;48.092;-1.640;2023-07-31T04:10:44;13.50;;;3.90;;
74926;SDS011;63488;48.092;-1.640;2023-07-31T04:13:10;13.15;;;4.25;;
74926;SDS011;63488;48.092;-1.640;2023-07-31T04:15:35;16.50;;;4.93;;
74926;SDS011;63488;48.092;-1.640;2023-07-31T04:18:00;11.50;;;4.00;;
74926;SDS011;63488;48.092;-1.640;2023-07-31T04:20:26;11.52;;;4.13;;
74926;SDS011;63488;48.092;-1.640;2023-07-31T04:22:51;9.85;;;4.40;;
74926;SDS011;63488;48.092;-1.640;2023-07-31T04:25:16;11.10;;;3.75;;
74926;SDS011;63488;48.092;-1.640;2023-07-31T04:27:42;11.10;;;3.97;;
74926;SDS011;63488;48.092;-1.640;2023-07-31T04:30:07;14.25;;;4.07;;
74926;SDS011;63488;48.092;-1.640;2023-07-31T04:32:33;12.90;;;4.00;;
74926;SDS011;63488;48.092;-1.640;2023-07-31T04:35:00;14.77;;;4.10;;
74926;SDS011;63488;48.092;-1.640;2023-07-31T04:37:25;11.13;;;4.43;;
74926;SDS011;63488;48.092;-1.640;2023-07-31T04:39:51;13.45;;;3.85;;
74926;SDS011;63488;48.092;-1.640;2023-07-31T04:42:16;9.98;;;3.72;;
74926;SDS011;63488;48.092;-1.640;2023-07-31T04:44:41;9.80;;;3.70;;
74926;SDS011;63488;48.092;-1.640;2023-07-31T04:47:07;13.27;;;4.30;;
74926;SDS011;63488;48.092;-1.640;2023-07-31T04:49:32;11.43;;;4.00;;
74926;SDS011;63488;48.092;-1.640;2023-07-31T04:51:57;11.73;;;3.80;;
74926;SDS011;63488;48.092;-1.640;2023-07-31T04:54:23;12.23;;;3.90;;
74926;SDS011;63488;48.092;-1.640;2023-07-31T04:56:48;12.90;;;3.92;;
74926;SDS011;63488;48.092;-1.640;2023-07-31T04:59:13;11.80;;;4.07;;
74926;SDS011;63488;48.092;-1.640;2023-07-31T05:01:39;8.20;;;3.70;;
74926;SDS011;63488;48.092;-1.640;2023-07-31T05:04:04;11.13;;;4.15;;
74926;SDS011;63488;48.092;-1.640;2023-07-31T05:06:29;7.65;;;3.67;;
74926;SDS011;63488;48.092;-1.640;2023-07-31T05:08:55;6.53;;;3.60;;
74926;SDS011;63488;48.092;-1.640;2023-07-31T05:11:20;11.13;;;3.92;;
74926;SDS011;63488;48.092;-1.640;2023-07-31T05:13:45;14.10;;;3.88;;
74926;SDS011;63488;48.092;-1.640;2023-07-31T05:16:11;13.10;;;3.95;;
74926;SDS011;63488;48.092;-1.640;2023-07-31T05:18:36;11.00;;;3.85;;
74926;SDS011;63488;48.092;-1.640;2023-07-31T05:21:02;12.63;;;4.40;;
74926;SDS011;63488;48.092;-1.640;2023-07-31T05:23:27;9.63;;;3.88;;
74926;SDS011;63488;48.092;-1.640;2023-07-31T05:25:53;9.70;;;3.58;;
74926;SDS011;63488;48.092;-1.640;2023-07-31T05:28:18;11.70;;;4.32;;
74926;SDS011;63488;48.092;-1.640;2023-07-31T05:30:43;10.23;;;3.50;;
74926;SDS011;63488;48.092;-1.640;2023-07-31T05:33:09;10.10;;;3.67;;
74926;SDS011;63488;48.092;-1.640;2023-07-31T05:35:34;13.32;;;4.07;;
74926;SDS011;63488;48.092;-1.640;2023-07-31T05:37:59;15.15;;;4.05;;
74926;SDS011;63488;48.092;-1.640;2023-07-31T05:40:25;7.53;;;3.17;;
74926;SDS011;63488;48.092;-1.640;2023-07-31T05:42:50;9.63;;;3.83;;
74926;SDS011;63488;48.092;-1.640;2023-07-31T05:45:15;12.25;;;3.30;;
74926;SDS011;63488;48.092;-1.640;2023-07-31T05:47:41;12.98;;;3.30;;
74926;SDS011;63488;48.092;-1.640;2023-07-31T05:50:06;10.15;;;3.28;;
74926;SDS011;63488;48.092;-1.640;2023-07-31T05:52:32;10.90;;;3.92;;
74926;SDS011;63488;48.092;-1.640;2023-07-31T05:54:57;8.93;;;3.17;;
74926;SDS011;63488;48.092;-1.640;2023-07-31T05:57:22;8.80;;;3.70;;
74926;SDS011;63488;48.092;-1.640;2023-07-31T05:59:48;12.20;;;3.50;;
74926;SDS011;63488;48.092;-1.640;2023-07-31T06:02:13;11.68;;;3.50;;
74926;SDS011;63488;48.092;-1.640;2023-07-31T06:04:39;12.20;;;3.75;;
74926;SDS011;63488;48.092;-1.640;2023-07-31T06:07:04;9.32;;;3.33;;
74926;SDS011;63488;48.092;-1.640;2023-07-31T06:09:30;10.38;;;3.33;;
74926;SDS011;63488;48.092;-1.640;2023-07-31T06:11:55;10.65;;;3.80;;
74926;SDS011;63488;48.092;-1.640;2023-07-31T06:14:20;11.25;;;3.33;;
74926;SDS011;63488;48.092;-1.640;2023-07-31T06:16:46;16.15;;;4.15;;
74926;SDS011;63488;48.092;-1.640;2023-07-31T06:19:11;9.02;;;3.20;;
74926;SDS011;63488;48.092;-1.640;2023-07-31T06:21:36;11.85;;;3.38;;
74926;SDS011;63488;48.092;-1.640;2023-07-31T06:24:03;12.15;;;3.55;;
74926;SDS011;63488;48.092;-1.640;2023-07-31T06:26:28;10.43;;;3.25;;
74926;SDS011;63488;48.092;-1.640;2023-07-31T06:28:53;12.35;;;3.30;;
74926;SDS011;63488;48.092;-1.640;2023-07-31T06:31:19;8.02;;;2.95;;
74926;SDS011;63488;48.092;-1.640;2023-07-31T06:33:48;8.43;;;3.33;;
74926;SDS011;63488;48.092;-1.640;2023-07-31T06:36:13;9.73;;;3.20;;
74926;SDS011;63488;48.092;-1.640;2023-07-31T06:38:38;7.68;;;2.80;;
74926;SDS011;63488;48.092;-1.640;2023-07-31T06:41:04;7.10;;;2.70;;
74926;SDS011;63488;48.092;-1.640;2023-07-31T06:43:29;11.63;;;2.83;;
74926;SDS011;63488;48.092;-1.640;2023-07-31T06:45:54;9.40;;;2.75;;
74926;SDS011;63488;48.092;-1.640;2023-07-31T06:48:20;15.32;;;3.13;;
74926;SDS011;63488;48.092;-1.640;2023-07-31T06:50:45;8.13;;;2.90;;
74926;SDS011;63488;48.092;-1.640;2023-07-31T06:53:10;9.63;;;2.70;;
74926;SDS011;63488;48.092;-1.640;2023-07-31T06:55:36;10.00;;;2.90;;
74926;SDS011;63488;48.092;-1.640;2023-07-31T06:58:02;8.65;;;2.60;;
74926;SDS011;63488;48.092;-1.640;2023-07-31T07:00:27;8.48;;;3.08;;
74926;SDS011;63488;48.092;-1.640;2023-07-31T07:02:53;7.03;;;3.08;;
74926;SDS011;63488;48.092;-1.640;2023-07-31T07:05:19;6.50;;;2.90;;
74926;SDS011;63488;48.092;-1.640;2023-07-31T07:07:44;8.35;;;2.90;;
74926;SDS011;63488;48.092;-1.640;2023-07-31T07:10:10;8.43;;;2.50;;
74926;SDS011;63488;48.092;-1.640;2023-07-31T07:12:35;11.90;;;3.20;;
74926;SDS011;63488;48.092;-1.640;2023-07-31T07:15:01;9.30;;;2.58;;
74926;SDS011;63488;48.092;-1.640;2023-07-31T07:17:27;8.40;;;2.92;;
74926;SDS011;63488;48.092;-1.640;2023-07-31T07:19:53;8.30;;;3.05;;
74926;SDS011;63488;48.092;-1.640;2023-07-31T07:22:18;7.70;;;2.53;;
74926;SDS011;63488;48.092;-1.640;2023-07-31T07:24:43;7.97;;;3.08;;
74926;SDS011;63488;48.092;-1.640;2023-07-31T07:27:09;8.13;;;2.95;;
74926;SDS011;63488;48.092;-1.640;2023-07-31T07:29:34;8.75;;;2.72;;
74926;SDS011;63488;48.092;-1.640;2023-07-31T07:32:00;8.32;;;2.88;;
74926;SDS011;63488;48.092;-1.640;2023-07-31T07:34:26;10.55;;;3.00;;
74926;SDS011;63488;48.092;-1.640;2023-07-31T07:36:51;7.03;;;2.75;;
74926;SDS011;63488;48.092;-1.640;2023-07-31T07:39:17;8.30;;;3.05;;
74926;SDS011;63488;48.092;-1.640;2023-07-31T07:41:42;9.60;;;2.72;;
74926;SDS011;63488;48.092;-1.640;2023-07-31T07:44:07;6.60;;;2.90;;
74926;SDS011;63488;48.092;-1.640;2023-07-31T07:46:33;6.35;;;2.60;;
74926;SDS011;63488;48.092;-1.640;2023-07-31T07:48:58;7.00;;;2.50;;
74926;SDS011;63488;48.092;-1.640;2023-07-31T07:51:24;5.85;;;2.17;;
74926;SDS011;63488;48.092;-1.640;2023-07-31T07:53:49;12.27;;;2.95;;
74926;SDS011;63488;48.092;-1.640;2023-07-31T07:56:14;10.40;;;3.08;;
74926;SDS011;63488;48.092;-1.640;2023-07-31T07:58:40;6.78;;;2.65;;
74926;SDS011;63488;48.092;-1.640;2023-07-31T08:01:05;7.20;;;2.50;;
74926;SDS011;63488;48.092;-1.640;2023-07-31T08:03:30;5.80;;;2.80;;
74926;SDS011;63488;48.092;-1.640;2023-07-31T08:05:59;7.80;;;2.65;;
74926;SDS011;63488;48.092;-1.640;2023-07-31T08:08:24;6.88;;;2.13;;
74926;SDS011;63488;48.092;-1.640;2023-07-31T08:10:50;9.60;;;2.50;;
74926;SDS011;63488;48.092;-1.640;2023-07-31T08:13:15;10.85;;;2.70;;
74926;SDS011;63488;48.092;-1.640;2023-07-31T08:15:41;6.18;;;2.00;;
74926;SDS011;63488;48.092;-1.640;2023-07-31T08:18:07;7.30;;;2.20;;
74926;SDS011;63488;48.092;-1.640;2023-07-31T08:20:32;9.88;;;1.98;;
74926;SDS011;63488;48.092;-1.640;2023-07-31T08:22:57;6.32;;;2.22;;
74926;SDS011;63488;48.092;-1.640;2023-07-31T08:25:23;8.57;;;2.22;;
74926;SDS011;63488;48.092;-1.640;2023-07-31T08:27:48;4.80;;;1.95;;
74926;SDS011;63488;48.092;-1.640;2023-07-31T08:30:14;7.25;;;2.30;;
74926;SDS011;63488;48.092;-1.640;2023-07-31T08:32:39;6.05;;;2.35;;
74926;SDS011;63488;48.092;-1.640;2023-07-31T08:35:04;6.03;;;1.80;;
74926;SDS011;63488;48.092;-1.640;2023-07-31T08:37:30;10.57;;;2.45;;
74926;SDS011;63488;48.092;-1.640;2023-07-31T08:39:55;7.18;;;1.92;;
74926;SDS011;63488;48.092;-1.640;2023-07-31T08:42:20;7.30;;;2.03;;
74926;SDS011;63488;48.092;-1.640;2023-07-31T08:44:46;5.25;;;2.00;;
74926;SDS011;63488;48.092;-1.640;2023-07-31T08:47:12;5.53;;;2.22;;
74926;SDS011;63488;48.092;-1.640;2023-07-31T08:49:37;5.63;;;2.30;;
74926;SDS011;63488;48.092;-1.640;2023-07-31T08:52:03;6.55;;;1.95;;
74926;SDS011;63488;48.092;-1.640;2023-07-31T08:54:29;7.10;;;1.92;;
74926;SDS011;63488;48.092;-1.640;2023-07-31T08:56:56;4.07;;;1.73;;
74926;SDS011;63488;48.092;-1.640;2023-07-31T08:59:22;3.58;;;1.63;;
74926;SDS011;63488;48.092;-1.640;2023-07-31T09:01:49;3.85;;;1.63;;
74926;SDS011;63488;48.092;-1.640;2023-07-31T09:04:16;4.15;;;1.60;;
74926;SDS011;63488;48.092;-1.640;2023-07-31T09:06:42;4.53;;;1.60;;
74926;SDS011;63488;48.092;-1.640;2023-07-31T09:09:07;4.20;;;1.90;;
74926;SDS011;63488;48.092;-1.640;2023-07-31T09:11:32;4.05;;;1.60;;
74926;SDS011;63488;48.092;-1.640;2023-07-31T09:13:58;4.55;;;1.77;;
74926;SDS011;63488;48.092;-1.640;2023-07-31T09:16:29;3.10;;;1.60;;
74926;SDS011;63488;48.092;-1.640;2023-07-31T09:18:57;4.80;;;1.60;;
74926;SDS011;63488;48.092;-1.640;2023-07-31T09:21:23;4.07;;;1.80;;
74926;SDS011;63488;48.092;-1.640;2023-07-31T09:23:49;4.85;;;1.80;;
74926;SDS011;63488;48.092;-1.640;2023-07-31T09:28:59;5.70;;;2.08;;
74926;SDS011;63488;48.092;-1.640;2023-07-31T09:33:59;3.05;;;2.00;;
74926;SDS011;63488;48.092;-1.640;2023-07-31T09:36:28;10.02;;;2.00;;
74926;SDS011;63488;48.092;-1.640;2023-07-31T09:38:53;6.45;;;1.85;;
74926;SDS011;63488;48.092;-1.640;2023-07-31T09:41:19;4.68;;;2.10;;
74926;SDS011;63488;48.092;-1.640;2023-07-31T09:43:52;6.10;;;2.35;;
74926;SDS011;63488;48.092;-1.640;2023-07-31T09:46:20;6.28;;;2.85;;
74926;SDS011;63488;48.092;-1.640;2023-07-31T09:48:46;10.15;;;2.60;;
74926;SDS011;63488;48.092;-1.640;2023-07-31T09:51:12;5.72;;;2.50;;
74926;SDS011;63488;48.092;-1.640;2023-07-31T09:53:37;8.82;;;3.05;;
74926;SDS011;63488;48.092;-1.640;2023-07-31T09:56:02;8.77;;;3.20;;
74926;SDS011;63488;48.092;-1.640;2023-07-31T09:58:28;11.82;;;2.90;;
74926;SDS011;63488;48.092;-1.640;2023-07-31T10:00:54;6.90;;;3.13;;
74926;SDS011;63488;48.092;-1.640;2023-07-31T10:03:20;8.45;;;2.95;;
74926;SDS011;63488;48.092;-1.640;2023-07-31T10:05:48;8.00;;;3.45;;
74926;SDS011;63488;48.092;-1.640;2023-07-31T10:08:15;9.68;;;3.38;;
74926;SDS011;63488;48.092;-1.640;2023-07-31T10:10:41;6.82;;;2.80;;
74926;SDS011;63488;48.092;-1.640;2023-07-31T10:13:07;10.35;;;3.42;;
74926;SDS011;63488;48.092;-1.640;2023-07-31T10:15:32;9.02;;;3.72;;
74926;SDS011;63488;48.092;-1.640;2023-07-31T10:17:58;8.90;;;3.15;;
74926;SDS011;63488;48.092;-1.640;2023-07-31T10:20:24;9.55;;;3.47;;
74926;SDS011;63488;48.092;-1.640;2023-07-31T10:22:50;7.18;;;2.95;;
74926;SDS011;63488;48.092;-1.640;2023-07-31T10:25:16;9.50;;;3.38;;
74926;SDS011;63488;48.092;-1.640;2023-07-31T10:27:42;8.85;;;3.25;;
74926;SDS011;63488;48.092;-1.640;2023-07-31T10:30:08;9.60;;;3.78;;
74926;SDS011;63488;48.092;-1.640;2023-07-31T10:32:34;9.80;;;3.42;;
74926;SDS011;63488;48.092;-1.640;2023-07-31T10:35:01;9.80;;;3.45;;
74926;SDS011;63488;48.092;-1.640;2023-07-31T10:37:39;10.15;;;3.70;;
74926;SDS011;63488;48.092;-1.640;2023-07-31T10:40:06;7.55;;;2.92;;
74926;SDS011;63488;48.092;-1.640;2023-07-31T10:42:44;8.63;;;3.20;;
74926;SDS011;63488;48.092;-1.640;2023-07-31T10:45:10;7.50;;;3.50;;
74926;SDS011;63488;48.092;-1.640;2023-07-31T10:52:44;7.15;;;3.13;;
74926;SDS011;63488;48.092;-1.640;2023-07-31T10:55:16;7.40;;;2.97;;
74926;SDS011;63488;48.092;-1.640;2023-07-31T10:57:46;7.82;;;3.17;;
74926;SDS011;63488;48.092;-1.640;2023-07-31T11:00:19;9.60;;;3.35;;
74926;SDS011;63488;48.092;-1.640;2023-07-31T11:03:01;5.85;;;2.90;;
74926;SDS011;63488;48.092;-1.640;2023-07-31T11:13:27;6.95;;;2.70;;
74926;SDS011;63488;48.092;-1.640;2023-07-31T11:15:53;8.35;;;2.55;;
74926;SDS011;63488;48.092;-1.640;2023-07-31T11:18:18;6.20;;;2.72;;
74926;SDS011;63488;48.092;-1.640;2023-07-31T11:20:44;6.68;;;2.40;;
74926;SDS011;63488;48.092;-1.640;2023-07-31T11:23:09;6.13;;;2.60;;
74926;SDS011;63488;48.092;-1.640;2023-07-31T11:25:36;7.80;;;3.25;;
74926;SDS011;63488;48.092;-1.640;2023-07-31T11:28:02;6.60;;;3.00;;
74926;SDS011;63488;48.092;-1.640;2023-07-31T11:30:28;6.60;;;3.17;;
74926;SDS011;63488;48.092;-1.640;2023-07-31T11:32:54;8.35;;;2.97;;
74926;SDS011;63488;48.092;-1.640;2023-07-31T11:35:20;9.68;;;3.65;;
74926;SDS011;63488;48.092;-1.640;2023-07-31T11:37:45;7.30;;;3.05;;
74926;SDS011;63488;48.092;-1.640;2023-07-31T11:40:11;7.57;;;3.30;;
74926;SDS011;63488;48.092;-1.640;2023-07-31T11:42:36;10.02;;;3.55;;
74926;SDS011;63488;48.092;-1.640;2023-07-31T11:45:02;6.32;;;2.95;;
74926;SDS011;63488;48.092;-1.640;2023-07-31T11:47:28;8.00;;;3.33;;
74926;SDS011;63488;48.092;-1.640;2023-07-31T11:49:53;8.50;;;3.20;;
74926;SDS011;63488;48.092;-1.640;2023-07-31T11:52:19;7.70;;;3.20;;
74926;SDS011;63488;48.092;-1.640;2023-07-31T11:54:48;5.78;;;2.80;;
74926;SDS011;63488;48.092;-1.640;2023-07-31T11:57:13;6.50;;;2.90;;
74926;SDS011;63488;48.092;-1.640;2023-07-31T11:59:39;10.85;;;3.03;;
74926;SDS011;63488;48.092;-1.640;2023-07-31T12:02:05;10.25;;;3.45;;
74926;SDS011;63488;48.092;-1.640;2023-07-31T12:04:30;8.45;;;2.97;;
74926;SDS011;63488;48.092;-1.640;2023-07-31T12:06:56;5.95;;;3.22;;
74926;SDS011;63488;48.092;-1.640;2023-07-31T12:09:21;7.55;;;3.03;;
74926;SDS011;63488;48.092;-1.640;2023-07-31T12:11:47;7.50;;;3.15;;
74926;SDS011;63488;48.092;-1.640;2023-07-31T12:14:28;7.38;;;3.60;;
74926;SDS011;63488;48.092;-1.640;2023-07-31T12:16:57;6.78;;;2.60;;
74926;SDS011;63488;48.092;-1.640;2023-07-31T12:19:24;4.45;;;2.72;;
74926;SDS011;63488;48.092;-1.640;2023-07-31T12:21:52;5.53;;;2.65;;
74926;SDS011;63488;48.092;-1.640;2023-07-31T12:24:18;5.03;;;2.45;;
74926;SDS011;63488;48.092;-1.640;2023-07-31T12:26:45;4.90;;;2.50;;
74926;SDS011;63488;48.092;-1.640;2023-07-31T12:29:10;5.10;;;2.47;;
74926;SDS011;63488;48.092;-1.640;2023-07-31T12:31:36;5.07;;;2.60;;
74926;SDS011;63488;48.092;-1.640;2023-07-31T12:34:01;5.03;;;2.40;;
74926;SDS011;63488;48.092;-1.640;2023-07-31T12:36:27;4.18;;;2.10;;
74926;SDS011;63488;48.092;-1.640;2023-07-31T12:38:55;5.47;;;2.67;;
74926;SDS011;63488;48.092;-1.640;2023-07-31T12:41:23;4.00;;;2.20;;
74926;SDS011;63488;48.092;-1.640;2023-07-31T12:43:49;5.85;;;2.13;;
74926;SDS011;63488;48.092;-1.640;2023-07-31T12:46:14;3.70;;;2.22;;
74926;SDS011;63488;48.092;-1.640;2023-07-31T12:48:40;4.13;;;2.50;;
74926;SDS011;63488;48.092;-1.640;2023-07-31T12:51:05;3.55;;;1.95;;
74926;SDS011;63488;48.092;-1.640;2023-07-31T12:53:34;3.33;;;1.63;;
74926;SDS011;63488;48.092;-1.640;2023-07-31T12:55:59;3.05;;;1.33;;
74926;SDS011;63488;48.092;-1.640;2023-07-31T12:58:25;4.25;;;1.70;;
74926;SDS011;63488;48.092;-1.640;2023-07-31T13:00:50;3.70;;;1.98;;
74926;SDS011;63488;48.092;-1.640;2023-07-31T13:03:16;4.00;;;1.90;;
74926;SDS011;63488;48.092;-1.640;2023-07-31T13:05:41;2.47;;;1.58;;
74926;SDS011;63488;48.092;-1.640;2023-07-31T13:08:07;3.58;;;1.58;;
74926;SDS011;63488;48.092;-1.640;2023-07-31T13:10:32;2.95;;;1.60;;
74926;SDS011;63488;48.092;-1.640;2023-07-31T13:12:58;2.55;;;1.40;;
74926;SDS011;63488;48.092;-1.640;2023-07-31T13:15:23;3.33;;;1.45;;
74926;SDS011;63488;48.092;-1.640;2023-07-31T13:17:48;2.92;;;1.27;;
74926;SDS011;63488;48.092;-1.640;2023-07-31T13:20:14;3.33;;;1.10;;
74926;SDS011;63488;48.092;-1.640;2023-07-31T13:22:39;2.70;;;1.27;;
74926;SDS011;63488;48.092;-1.640;2023-07-31T13:25:05;2.75;;;1.33;;
74926;SDS011;63488;48.092;-1.640;2023-07-31T13:27:31;4.85;;;1.65;;
74926;SDS011;63488;48.092;-1.640;2023-07-31T13:29:56;4.10;;;1.40;;
74926;SDS011;63488;48.092;-1.640;2023-07-31T13:32:22;3.20;;;1.38;;
74926;SDS011;63488;48.092;-1.640;2023-07-31T13:34:47;3.92;;;1.35;;
74926;SDS011;63488;48.092;-1.640;2023-07-31T13:37:13;3.10;;;1.50;;
74926;SDS011;63488;48.092;-1.640;2023-07-31T13:39:39;2.22;;;1.08;;
74926;SDS011;63488;48.092;-1.640;2023-07-31T13:42:05;2.90;;;1.45;;
74926;SDS011;63488;48.092;-1.640;2023-07-31T13:44:33;2.55;;;1.10;;
74926;SDS011;63488;48.092;-1.640;2023-07-31T13:46:59;3.45;;;1.25;;
74926;SDS011;63488;48.092;-1.640;2023-07-31T13:49:24;2.72;;;1.40;;
74926;SDS011;63488;48.092;-1.640;2023-07-31T13:51:49;2.45;;;1.20;;
74926;SDS011;63488;48.092;-1.640;2023-07-31T13:54:15;2.85;;;1.25;;
74926;SDS011;63488;48.092;-1.640;2023-07-31T13:56:40;3.67;;;1.30;;
74926;SDS011;63488;48.092;-1.640;2023-07-31T13:59:06;1.58;;;1.02;;
74926;SDS011;63488;48.092;-1.640;2023-07-31T14:01:31;3.75;;;1.30;;
74926;SDS011;63488;48.092;-1.640;2023-07-31T14:03:57;5.57;;;1.27;;
74926;SDS011;63488;48.092;-1.640;2023-07-31T14:06:22;2.88;;;1.30;;
74926;SDS011;63488;48.092;-1.640;2023-07-31T14:08:48;2.65;;;1.13;;
74926;SDS011;63488;48.092;-1.640;2023-07-31T14:11:13;2.92;;;1.10;;
74926;SDS011;63488;48.092;-1.640;2023-07-31T14:13:38;2.65;;;1.00;;
74926;SDS011;63488;48.092;-1.640;2023-07-31T14:16:04;2.40;;;1.75;;
74926;SDS011;63488;48.092;-1.640;2023-07-31T14:18:29;2.83;;;1.13;;
74926;SDS011;63488;48.092;-1.640;2023-07-31T14:20:55;1.73;;;0.90;;
74926;SDS011;63488;48.092;-1.640;2023-07-31T14:23:20;4.57;;;0.95;;
74926;SDS011;63488;48.092;-1.640;2023-07-31T14:25:46;1.77;;;0.70;;
74926;SDS011;63488;48.092;-1.640;2023-07-31T14:28:11;2.63;;;1.10;;
74926;SDS011;63488;48.092;-1.640;2023-07-31T14:30:37;2.50;;;0.70;;
74926;SDS011;63488;48.092;-1.640;2023-07-31T14:33:02;3.33;;;1.35;;
74926;SDS011;63488;48.092;-1.640;2023-07-31T14:35:27;2.63;;;1.15;;
74926;SDS011;63488;48.092;-1.640;2023-07-31T14:37:53;2.55;;;1.10;;
74926;SDS011;63488;48.092;-1.640;2023-07-31T14:40:18;2.08;;;0.90;;
74926;SDS011;63488;48.092;-1.640;2023-07-31T14:42:43;2.53;;;0.85;;